Time;durP1;ratioP1;P1;durP2;ratioP2;P2;SDS_P1;SDS_P2;PMS_P1;PMS_P2;Temp;Humidity;BMP_temperature;BMP_pressure;BME280_temperature;BME280_humidity;BME280_pressure;Samples;Min_cycle;Max_cycle;Signal;HPM_P1;HPM_P2
2024/02/18 00:01:32;;;;;;;12.57;3.42;;;11.10;99.90;;;;;;5106582;28;20078;-47
2024/02/18 00:03:58;;;;;;;12.82;3.83;;;11.10;99.90;;;;;;5088646;28;20032;-46
2024/02/18 00:06:24;;;;;;;11.63;3.40;;;11.10;99.90;;;;;;5106695;28;20028;-45
2024/02/18 00:08:49;;;;;;;13.57;4.28;;;11.10;99.90;;;;;;5106367;28;20028;-44
2024/02/18 00:11:16;;;;;;;10.02;3.90;;;11.10;99.90;;;;;;5106375;28;20036;-45
2024/02/18 00:13:42;;;;;;;13.38;4.40;;;11.10;99.90;;;;;;5106136;28;20032;-45
2024/02/18 00:16:07;;;;;;;8.93;3.13;;;11.10;99.90;;;;;;5105966;28;20028;-46
2024/02/18 00:18:33;;;;;;;9.88;3.75;;;11.00;99.90;;;;;;5106212;28;20155;-45
2024/02/18 00:20:59;;;;;;;21.35;5.07;;;11.10;99.90;;;;;;5106253;28;20269;-46
2024/02/18 00:23:24;;;;;;;12.70;3.70;;;11.00;99.90;;;;;;5105951;28;20056;-45
2024/02/18 00:25:50;;;;;;;21.70;6.55;;;11.00;99.90;;;;;;5106133;28;20181;-45
2024/02/18 00:28:15;;;;;;;8.95;3.03;;;11.00;99.90;;;;;;5106253;28;20091;-46
2024/02/18 00:30:41;;;;;;;16.83;4.75;;;11.00;99.90;;;;;;5106149;28;20308;-46
2024/02/18 00:33:08;;;;;;;5.82;1.73;;;10.90;99.90;;;;;;5106375;28;20039;-45
2024/02/18 00:35:33;;;;;;;15.32;4.40;;;11.00;99.90;;;;;;5106119;28;20058;-45
2024/02/18 00:37:59;;;;;;;16.80;3.97;;;10.90;99.90;;;;;;5106343;28;20328;-46
2024/02/18 00:40:24;;;;;;;17.63;4.20;;;10.90;99.90;;;;;;5106216;28;20059;-45
2024/02/18 00:42:50;;;;;;;10.35;2.03;;;10.90;99.90;;;;;;5105994;28;20046;-46
2024/02/18 00:45:16;;;;;;;8.93;3.08;;;10.90;99.90;;;;;;5105582;28;20027;-47
2024/02/18 00:47:41;;;;;;;8.32;2.97;;;10.90;99.90;;;;;;5106138;28;20154;-46
2024/02/18 00:50:08;;;;;;;9.88;3.40;;;10.90;99.90;;;;;;5106069;28;20028;-46
2024/02/18 00:52:33;;;;;;;9.70;2.83;;;10.90;99.90;;;;;;5106008;28;20024;-46
2024/02/18 00:54:59;;;;;;;10.75;3.53;;;10.90;99.90;;;;;;5105810;28;20210;-48
2024/02/18 00:57:24;;;;;;;10.02;3.60;;;11.00;99.90;;;;;;5105679;28;20032;-46
2024/02/18 00:59:50;;;;;;;10.30;3.08;;;11.00;99.90;;;;;;5105996;28;20034;-47
2024/02/18 01:02:16;;;;;;;9.45;2.78;;;11.00;99.90;;;;;;5105054;28;20028;-46
2024/02/18 01:04:41;;;;;;;6.53;2.05;;;11.00;99.90;;;;;;5105740;28;20111;-45
2024/02/18 01:07:08;;;;;;;6.00;2.45;;;11.00;99.90;;;;;;5105673;28;20020;-45
2024/02/18 01:09:34;;;;;;;7.22;3.15;;;11.10;99.90;;;;;;5104831;28;20024;-46
2024/02/18 01:12:02;;;;;;;7.43;2.85;;;11.10;99.90;;;;;;5105833;28;20081;-45
2024/02/18 01:14:27;;;;;;;6.93;2.30;;;11.10;99.90;;;;;;5106035;28;20273;-47
2024/02/18 01:16:53;;;;;;;5.40;2.50;;;11.10;99.90;;;;;;5105488;28;20043;-46
2024/02/18 01:19:20;;;;;;;8.77;2.78;;;11.10;99.90;;;;;;5105661;28;20039;-46
2024/02/18 01:21:46;;;;;;;6.80;2.33;;;11.10;99.90;;;;;;5105507;28;20144;-45
2024/02/18 01:24:11;;;;;;;7.20;2.50;;;11.10;99.90;;;;;;5105560;28;20061;-48
2024/02/18 01:26:37;;;;;;;8.90;2.35;;;11.20;99.90;;;;;;5105748;28;20040;-48
2024/02/18 01:29:03;;;;;;;5.70;2.28;;;11.10;99.90;;;;;;5105342;28;20044;-49
2024/02/18 01:31:29;;;;;;;5.22;2.03;;;11.10;99.90;;;;;;5105049;28;20262;-46
2024/02/18 01:33:54;;;;;;;3.33;1.73;;;11.10;99.90;;;;;;5105629;28;20051;-45
2024/02/18 01:36:20;;;;;;;6.22;1.85;;;11.10;99.90;;;;;;5105627;28;20032;-47
2024/02/18 01:38:46;;;;;;;3.53;1.70;;;11.10;99.90;;;;;;5105305;28;20038;-46
2024/02/18 01:41:11;;;;;;;3.97;1.33;;;11.10;99.90;;;;;;5105349;28;20039;-46
2024/02/18 01:43:37;;;;;;;6.75;1.77;;;11.10;99.90;;;;;;5105595;28;20087;-45
2024/02/18 01:46:03;;;;;;;2.40;1.27;;;11.00;99.90;;;;;;5105629;28;20173;-45
2024/02/18 01:48:29;;;;;;;4.18;1.75;;;11.00;99.90;;;;;;5104549;28;20032;-45
2024/02/18 01:50:55;;;;;;;3.45;1.10;;;10.90;99.90;;;;;;5105168;28;20074;-46
2024/02/18 01:53:21;;;;;;;2.03;1.15;;;10.90;99.90;;;;;;5104459;28;20381;-45
2024/02/18 01:55:46;;;;;;;7.50;1.90;;;10.90;99.90;;;;;;5104519;28;20058;-46
2024/02/18 01:58:12;;;;;;;4.68;1.10;;;10.90;99.90;;;;;;5104656;28;20032;-46
2024/02/18 02:00:39;;;;;;;2.63;1.20;;;10.90;99.90;;;;;;5105550;28;20027;-47
2024/02/18 02:03:04;;;;;;;2.88;1.20;;;10.90;99.90;;;;;;5105433;28;20054;-46
2024/02/18 02:05:31;;;;;;;2.35;1.00;;;10.80;99.90;;;;;;5105350;28;20338;-49
2024/02/18 02:07:56;;;;;;;2.03;0.90;;;10.80;99.90;;;;;;5104950;28;20177;-46
2024/02/18 02:10:22;;;;;;;1.90;1.10;;;10.90;99.90;;;;;;5105576;28;20034;-45
2024/02/18 02:12:48;;;;;;;3.38;1.00;;;10.80;99.90;;;;;;5105616;28;20039;-45
2024/02/18 02:15:13;;;;;;;1.92;1.00;;;10.80;99.90;;;;;;5108286;28;20325;-46
2024/02/18 02:17:39;;;;;;;2.05;1.10;;;10.80;99.90;;;;;;5107973;28;20036;-46
2024/02/18 02:20:11;;;;;;;5.03;1.20;;;10.80;99.90;;;;;;5108856;28;20028;-46
2024/02/18 02:22:37;;;;;;;4.25;1.50;;;10.70;99.90;;;;;;5108870;28;20044;-46
2024/02/18 02:25:03;;;;;;;5.45;1.40;;;10.70;99.90;;;;;;5108630;28;20075;-48
2024/02/18 02:27:36;;;;;;;3.92;1.80;;;10.70;99.90;;;;;;5108801;28;20278;-45
2024/02/18 02:30:05;;;;;;;5.20;1.35;;;10.70;99.90;;;;;;5109163;28;20064;-48
2024/02/18 02:32:37;;;;;;;7.18;1.70;;;10.70;99.90;;;;;;5107755;28;20182;-45
2024/02/18 02:35:03;;;;;;;3.92;1.55;;;10.70;99.90;;;;;;5108668;28;20096;-48
2024/02/18 02:37:33;;;;;;;3.72;1.52;;;10.70;99.90;;;;;;5107468;28;20368;-46
2024/02/18 02:39:59;;;;;;;6.25;1.67;;;10.70;99.90;;;;;;5107339;28;20095;-48
2024/02/18 02:42:24;;;;;;;5.93;1.95;;;10.70;99.90;;;;;;5107400;28;20038;-44
2024/02/18 02:44:50;;;;;;;4.85;1.80;;;10.70;99.90;;;;;;5108579;28;20170;-45
2024/02/18 02:47:16;;;;;;;3.40;1.67;;;10.70;99.90;;;;;;5108448;28;20036;-45
2024/02/18 02:49:41;;;;;;;7.18;1.80;;;10.60;99.90;;;;;;5108334;28;20049;-48
2024/02/18 02:52:07;;;;;;;4.55;1.50;;;10.60;99.90;;;;;;5108208;28;20020;-45
2024/02/18 02:54:33;;;;;;;3.42;1.30;;;10.60;99.90;;;;;;5108414;28;20174;-44
2024/02/18 02:56:58;;;;;;;3.20;1.20;;;10.60;99.90;;;;;;5107816;28;20040;-45
2024/02/18 02:59:24;;;;;;;3.05;1.40;;;10.60;99.90;;;;;;5107899;28;20035;-45
2024/02/18 03:01:50;;;;;;;4.22;1.42;;;10.60;99.90;;;;;;5108106;28;20036;-46
2024/02/18 03:04:16;;;;;;;5.40;1.75;;;10.60;99.90;;;;;;5108693;28;20284;-45
2024/02/18 03:06:41;;;;;;;5.80;1.98;;;10.60;99.90;;;;;;5108089;28;20051;-46
2024/02/18 03:09:07;;;;;;;3.47;1.60;;;10.60;99.90;;;;;;5107838;28;20078;-46
2024/02/18 03:11:33;;;;;;;8.23;2.03;;;10.60;99.90;;;;;;5107348;28;20020;-44
2024/02/18 03:13:58;;;;;;;6.63;2.17;;;10.60;99.90;;;;;;5108206;28;20035;-46
2024/02/18 03:16:24;;;;;;;4.20;1.92;;;10.60;99.90;;;;;;5107957;28;20047;-44
2024/02/18 03:18:50;;;;;;;5.38;2.05;;;10.60;99.90;;;;;;5107707;28;20288;-45
2024/02/18 03:21:15;;;;;;;9.25;2.40;;;10.60;99.90;;;;;;5107924;28;20213;-45
2024/02/18 03:23:42;;;;;;;6.72;2.40;;;10.60;99.90;;;;;;5107470;28;20194;-45
2024/02/18 03:26:08;;;;;;;8.85;2.38;;;10.70;99.90;;;;;;5107059;28;20028;-44
2024/02/18 03:28:34;;;;;;;6.05;2.65;;;10.70;99.90;;;;;;5107138;28;20290;-45
2024/02/18 03:31:00;;;;;;;8.65;2.50;;;10.60;99.90;;;;;;5107197;28;20290;-45
2024/02/18 03:33:25;;;;;;;7.75;2.88;;;10.60;99.90;;;;;;5107356;28;20032;-45
2024/02/18 03:35:51;;;;;;;9.25;3.15;;;10.60;99.90;;;;;;5107560;28;20020;-46
2024/02/18 03:38:17;;;;;;;11.57;3.42;;;10.60;99.90;;;;;;5107594;28;20032;-45
2024/02/18 03:40:43;;;;;;;11.73;3.45;;;10.60;99.90;;;;;;5107331;28;20028;-45
2024/02/18 03:43:08;;;;;;;10.02;3.42;;;10.70;99.90;;;;;;5107149;28;20060;-48
2024/02/18 03:45:35;;;;;;;12.57;3.70;;;10.70;99.90;;;;;;5107433;28;20032;-45
2024/02/18 03:48:00;;;;;;;11.32;3.50;;;10.70;99.90;;;;;;5107272;28;20016;-44
2024/02/18 03:50:26;;;;;;;11.20;4.03;;;10.70;99.90;;;;;;5107290;28;20020;-45
2024/02/18 03:52:52;;;;;;;10.57;3.88;;;10.70;99.90;;;;;;5107086;28;20024;-46
2024/02/18 03:55:18;;;;;;;13.18;4.60;;;10.70;99.90;;;;;;5107157;28;20039;-47
2024/02/18 03:57:44;;;;;;;17.17;4.53;;;10.70;99.90;;;;;;5107058;28;20020;-45
2024/02/18 04:00:11;;;;;;;16.73;5.22;;;10.70;99.90;;;;;;5106866;28;20281;-45
2024/02/18 04:02:38;;;;;;;16.80;4.40;;;10.70;99.90;;;;;;5107156;28;20087;-46
2024/02/18 04:05:06;;;;;;;23.83;4.78;;;10.70;99.90;;;;;;5106910;28;20024;-46
2024/02/18 04:07:32;;;;;;;19.02;4.80;;;10.70;99.90;;;;;;5105797;28;20039;-46
2024/02/18 04:09:57;;;;;;;20.17;5.70;;;10.70;99.90;;;;;;5106886;28;20024;-45
2024/02/18 04:12:23;;;;;;;19.73;5.57;;;10.70;99.90;;;;;;5106945;28;20052;-47
2024/02/18 04:14:49;;;;;;;22.98;5.90;;;10.70;99.90;;;;;;5106534;28;20046;-44
2024/02/18 04:17:15;;;;;;;27.65;5.82;;;10.70;99.90;;;;;;5106400;28;20073;-45
2024/02/18 04:19:40;;;;;;;22.08;5.80;;;10.70;99.90;;;;;;5106606;28;20035;-45
2024/02/18 04:22:06;;;;;;;25.20;6.18;;;10.70;99.90;;;;;;5106507;28;20059;-48
2024/02/18 04:24:32;;;;;;;23.52;5.95;;;10.60;99.90;;;;;;5107277;28;20039;-46
2024/02/18 04:26:59;;;;;;;20.38;6.05;;;10.70;99.90;;;;;;5106584;28;20050;-45
2024/02/18 04:29:25;;;;;;;33.97;7.43;;;10.80;99.90;;;;;;5106347;28;20103;-44
2024/02/18 04:31:51;;;;;;;36.55;6.70;;;10.80;99.90;;;;;;5105931;28;20020;-44
2024/02/18 04:34:16;;;;;;;36.33;6.78;;;10.70;99.90;;;;;;5106539;28;20028;-46
2024/02/18 04:36:46;;;;;;;27.05;6.05;;;10.80;99.90;;;;;;5106225;28;20039;-45
2024/02/18 04:39:12;;;;;;;28.67;6.63;;;10.70;99.90;;;;;;5105274;28;20032;-44
2024/02/18 04:41:37;;;;;;;39.78;7.43;;;10.70;99.90;;;;;;5106270;28;20101;-45
2024/02/18 04:44:03;;;;;;;22.88;6.60;;;10.70;99.90;;;;;;5106262;28;20036;-46
2024/02/18 04:46:29;;;;;;;29.05;6.65;;;10.70;99.90;;;;;;5105657;28;20240;-45
2024/02/18 04:48:56;;;;;;;28.70;6.40;;;10.70;99.90;;;;;;5105892;28;20032;-44
2024/02/18 04:51:22;;;;;;;30.52;8.10;;;10.70;99.90;;;;;;5106264;28;20112;-45
2024/02/18 04:53:48;;;;;;;26.90;7.55;;;10.70;99.90;;;;;;5106101;28;20082;-46
2024/02/18 04:56:13;;;;;;;29.58;7.43;;;10.70;99.90;;;;;;5105613;28;20032;-45
2024/02/18 04:58:39;;;;;;;21.83;7.68;;;10.80;99.90;;;;;;5106491;28;20044;-50
2024/02/18 05:01:05;;;;;;;28.33;7.93;;;10.80;99.90;;;;;;5105917;28;20028;-46
2024/02/18 05:03:30;;;;;;;23.30;7.05;;;10.80;99.90;;;;;;5105251;28;20024;-47
2024/02/18 05:05:56;;;;;;;26.98;8.13;;;10.70;99.90;;;;;;5105967;28;20099;-46
2024/02/18 05:08:21;;;;;;;27.35;7.82;;;10.70;99.90;;;;;;5105401;28;20031;-44
2024/02/18 05:10:47;;;;;;;33.65;8.32;;;10.70;99.90;;;;;;5087897;28;20020;-45
2024/02/18 05:13:13;;;;;;;29.25;8.05;;;10.70;99.90;;;;;;5106259;28;20036;-46
2024/02/18 05:15:38;;;;;;;31.52;7.35;;;10.70;99.90;;;;;;5106087;28;20024;-44
2024/02/18 05:18:04;;;;;;;23.35;7.25;;;10.70;99.90;;;;;;5087774;28;20032;-45
2024/02/18 05:20:30;;;;;;;21.95;6.97;;;10.70;99.90;;;;;;5105815;28;20095;-45
2024/02/18 05:22:57;;;;;;;31.30;8.10;;;10.70;99.90;;;;;;5105381;28;20186;-46
2024/02/18 05:25:22;;;;;;;41.95;8.13;;;10.70;99.90;;;;;;5105672;28;20028;-44
2024/02/18 05:27:49;;;;;;;30.13;8.60;;;10.70;99.90;;;;;;5105800;28;20043;-47
2024/02/18 05:30:15;;;;;;;31.70;8.02;;;10.70;99.90;;;;;;5106489;28;20016;-47
2024/02/18 05:32:41;;;;;;;39.95;8.63;;;10.70;99.90;;;;;;5106286;28;20147;-46
2024/02/18 05:35:07;;;;;;;35.92;8.85;;;10.70;99.90;;;;;;5105685;28;20032;-45
2024/02/18 05:37:32;;;;;;;36.97;8.80;;;10.70;99.90;;;;;;5105441;28;20032;-46
2024/02/18 05:39:58;;;;;;;36.50;9.70;;;10.70;99.90;;;;;;5105905;28;20031;-48
2024/02/18 05:42:24;;;;;;;52.38;9.25;;;10.70;99.90;;;;;;5106115;28;20027;-47
2024/02/18 05:44:49;;;;;;;46.53;10.20;;;10.70;99.90;;;;;;5105484;28;20028;-46
2024/02/18 05:47:15;;;;;;;39.08;8.90;;;10.70;99.90;;;;;;5087643;28;20099;-46
2024/02/18 05:49:41;;;;;;;55.78;9.38;;;10.60;99.90;;;;;;5107385;28;20035;-46
2024/02/18 05:52:06;;;;;;;40.83;9.40;;;10.60;99.90;;;;;;5109513;28;20144;-45
2024/02/18 05:54:33;;;;;;;33.47;8.60;;;10.60;99.90;;;;;;5109442;28;20335;-45
2024/02/18 05:56:58;;;;;;;43.05;9.63;;;10.60;99.90;;;;;;5109468;28;20103;-46
2024/02/18 05:59:24;;;;;;;44.10;9.95;;;10.60;99.90;;;;;;5109180;28;20173;-47
2024/02/18 06:01:49;;;;;;;51.30;10.40;;;10.60;99.90;;;;;;5109373;28;20028;-45
2024/02/18 06:04:15;;;;;;;38.63;9.85;;;10.60;99.90;;;;;;5109357;28;20103;-48
2024/02/18 06:06:41;;;;;;;53.05;11.27;;;10.50;99.90;;;;;;5109096;28;20024;-45
2024/02/18 06:09:07;;;;;;;36.65;10.60;;;10.50;99.90;;;;;;5108803;28;20028;-45
2024/02/18 06:11:32;;;;;;;37.90;10.10;;;10.50;99.90;;;;;;5108839;28;20281;-46
2024/02/18 06:13:58;;;;;;;55.47;11.45;;;10.50;99.90;;;;;;5109375;28;20036;-45
2024/02/18 06:16:23;;;;;;;46.60;10.98;;;10.60;99.90;;;;;;5109457;28;20051;-47
2024/02/18 06:18:49;;;;;;;45.17;9.43;;;10.50;99.90;;;;;;5108798;28;20042;-46
2024/02/18 06:21:21;;;;;;;82.20;11.10;;;10.50;99.90;;;;;;5108736;28;20062;-46
2024/02/18 06:23:47;;;;;;;60.47;11.40;;;10.50;99.90;;;;;;5107400;28;20309;-47
2024/02/18 06:26:13;;;;;;;99.10;12.40;;;10.40;99.90;;;;;;5090164;28;20032;-47
2024/02/18 06:28:39;;;;;;;111.00;13.30;;;10.40;99.90;;;;;;5090183;28;20036;-47
2024/02/18 06:31:05;;;;;;;76.63;12.63;;;10.30;99.90;;;;;;5107907;28;20024;-46
2024/02/18 06:33:30;;;;;;;61.55;10.05;;;10.30;99.90;;;;;;5089463;28;20032;-46
2024/02/18 06:35:56;;;;;;;58.55;10.68;;;10.30;99.90;;;;;;5107780;28;20028;-47
2024/02/18 06:38:22;;;;;;;75.18;12.80;;;10.30;99.90;;;;;;5107402;28;20059;-47
2024/02/18 06:40:48;;;;;;;162.32;19.52;;;10.30;99.90;;;;;;5089444;28;20055;-46
2024/02/18 06:43:13;;;;;;;138.73;14.23;;;10.30;99.90;;;;;;5106923;28;20029;-47
2024/02/18 06:45:39;;;;;;;105.57;12.77;;;10.30;99.90;;;;;;5107305;28;20296;-46
2024/02/18 06:48:05;;;;;;;156.20;14.65;;;10.30;99.90;;;;;;5107681;28;20032;-49
2024/02/18 06:50:31;;;;;;;89.40;10.35;;;10.30;99.90;;;;;;5107356;28;20031;-47
2024/02/18 06:52:56;;;;;;;108.78;12.40;;;10.20;99.90;;;;;;5107137;28;20024;-48
2024/02/18 06:55:22;;;;;;;55.22;10.75;;;10.20;99.90;;;;;;5106836;28;20047;-47
2024/02/18 06:57:47;;;;;;;69.85;9.60;;;10.20;99.90;;;;;;5106942;28;20074;-46
2024/02/18 07:00:13;;;;;;;22.17;7.03;;;10.20;99.90;;;;;;5107255;28;20091;-45
2024/02/18 07:02:39;;;;;;;60.72;9.50;;;10.10;99.90;;;;;;5107259;28;20046;-48
2024/02/18 07:05:05;;;;;;;42.20;8.50;;;10.00;99.90;;;;;;5107248;28;20328;-46
2024/02/18 07:07:30;;;;;;;28.00;6.88;;;9.90;99.90;;;;;;5106540;28;20024;-47
2024/02/18 07:09:56;;;;;;;38.35;7.32;;;9.90;99.90;;;;;;5106812;28;20081;-49
2024/02/18 07:12:22;;;;;;;22.35;6.57;;;9.90;99.90;;;;;;5106841;28;20068;-47
2024/02/18 07:14:47;;;;;;;36.00;6.50;;;9.80;99.90;;;;;;5106444;28;20091;-46
2024/02/18 07:17:19;;;;;;;28.85;6.43;;;9.80;99.90;;;;;;5106871;28;20032;-46
2024/02/18 07:19:46;;;;;;;22.75;7.10;;;9.80;99.90;;;;;;5107110;28;20016;-46
2024/02/18 07:22:13;;;;;;;22.70;7.68;;;9.70;99.90;;;;;;5063286;28;1241754;-48
2024/02/18 07:24:39;;;;;;;16.63;6.22;;;9.70;99.90;;;;;;5107057;28;20062;-46
2024/02/18 07:27:04;;;;;;;26.60;7.35;;;9.80;99.90;;;;;;5107518;28;20219;-46
2024/02/18 07:29:30;;;;;;;28.95;7.47;;;9.80;99.90;;;;;;5107824;28;20016;-46
2024/02/18 07:31:56;;;;;;;26.73;8.40;;;9.70;99.90;;;;;;5107569;28;20162;-46
2024/02/18 07:34:21;;;;;;;23.70;7.57;;;9.70;99.90;;;;;;5107576;28;20028;-47
2024/02/18 07:36:47;;;;;;;30.75;8.02;;;9.70;99.90;;;;;;5106937;28;20357;-48
2024/02/18 07:39:13;;;;;;;38.95;8.93;;;9.70;99.90;;;;;;5107141;28;20038;-45
2024/02/18 07:41:38;;;;;;;36.65;9.02;;;9.80;99.90;;;;;;5107348;28;20085;-46
2024/02/18 07:44:05;;;;;;;37.10;9.35;;;9.80;99.90;;;;;;5107219;28;20034;-49
2024/02/18 07:46:31;;;;;;;32.55;10.70;;;9.80;99.90;;;;;;5107155;28;20036;-45
2024/02/18 07:48:56;;;;;;;34.38;10.10;;;9.80;99.90;;;;;;5107121;28;20023;-47
2024/02/18 07:51:22;;;;;;;27.50;9.43;;;9.90;99.90;;;;;;5107046;28;20016;-45
2024/02/18 07:53:48;;;;;;;32.58;9.57;;;9.90;99.90;;;;;;5106450;28;20091;-46
2024/02/18 07:56:14;;;;;;;34.88;9.80;;;10.00;99.90;;;;;;5107002;28;20261;-46
2024/02/18 07:58:40;;;;;;;29.20;8.43;;;10.10;99.90;;;;;;5106507;28;20056;-47
2024/02/18 08:01:05;;;;;;;34.63;9.15;;;10.20;99.90;;;;;;5106814;28;20043;-46
2024/02/18 08:03:31;;;;;;;34.30;9.25;;;10.20;99.90;;;;;;5106580;28;20027;-50
2024/02/18 08:05:56;;;;;;;34.15;12.18;;;10.30;99.90;;;;;;5089038;28;20379;-47
2024/02/18 08:08:22;;;;;;;29.60;9.07;;;10.40;99.90;;;;;;5106878;28;20039;-46
2024/02/18 08:10:48;;;;;;;34.80;9.55;;;10.50;99.90;;;;;;5106338;28;20147;-46
2024/02/18 08:13:14;;;;;;;31.98;8.57;;;10.50;99.90;;;;;;5105462;28;20030;-47
2024/02/18 08:15:39;;;;;;;34.58;9.40;;;10.50;99.90;;;;;;5106445;28;20071;-48
2024/02/18 08:18:05;;;;;;;34.75;9.20;;;10.50;99.90;;;;;;5106633;28;20028;-45
2024/02/18 08:20:31;;;;;;;34.35;8.95;;;10.60;99.90;;;;;;5106552;28;20024;-46
2024/02/18 08:22:56;;;;;;;34.72;9.50;;;10.60;99.90;;;;;;5106366;28;20052;-46
2024/02/18 08:25:22;;;;;;;28.23;8.35;;;10.70;99.90;;;;;;5106381;28;20024;-47
2024/02/18 08:27:47;;;;;;;31.77;7.97;;;10.60;99.90;;;;;;5106209;28;20024;-47
2024/02/18 08:30:14;;;;;;;33.85;10.02;;;10.50;99.90;;;;;;5088393;28;20211;-47
2024/02/18 08:32:39;;;;;;;34.63;9.45;;;10.50;99.90;;;;;;5106366;28;20086;-47
2024/02/18 08:35:05;;;;;;;26.42;8.18;;;10.50;99.90;;;;;;5106266;28;20032;-46
2024/02/18 08:37:31;;;;;;;29.88;8.25;;;10.60;99.90;;;;;;5106201;28;20277;-45
2024/02/18 08:39:57;;;;;;;27.45;8.00;;;10.70;99.90;;;;;;5106398;28;20031;-47
2024/02/18 08:42:23;;;;;;;30.77;8.32;;;10.80;99.90;;;;;;5105939;28;20048;-47
2024/02/18 08:44:48;;;;;;;24.70;7.82;;;10.90;99.90;;;;;;5106102;28;20251;-46
2024/02/18 08:47:14;;;;;;;27.40;7.93;;;10.90;99.90;;;;;;5105909;28;20178;-49
2024/02/18 08:49:43;;;;;;;26.60;8.52;;;10.90;99.90;;;;;;5106007;28;20024;-47
2024/02/18 08:52:09;;;;;;;28.45;8.07;;;10.90;99.90;;;;;;5105907;28;20028;-45
2024/02/18 08:54:34;;;;;;;29.67;8.05;;;11.00;99.90;;;;;;5106182;28;20024;-46
2024/02/18 08:57:00;;;;;;;23.27;7.30;;;11.00;99.90;;;;;;5105786;28;20027;-46
2024/02/18 08:59:26;;;;;;;26.25;7.90;;;10.90;99.90;;;;;;5105305;28;20027;-49
2024/02/18 09:01:56;;;;;;;23.00;7.13;;;11.00;99.90;;;;;;5105720;28;20058;-47
2024/02/18 09:04:23;;;;;;;18.92;6.57;;;11.00;99.90;;;;;;5105861;28;20035;-48
2024/02/18 09:06:49;;;;;;;21.98;6.93;;;11.00;99.90;;;;;;5105427;28;20097;-46
2024/02/18 09:09:14;;;;;;;24.70;6.82;;;11.00;99.90;;;;;;5105624;28;20028;-49
2024/02/18 09:11:42;;;;;;;22.50;6.97;;;11.00;99.90;;;;;;5105802;28;20181;-49
2024/02/18 09:14:08;;;;;;;23.38;6.50;;;11.00;99.90;;;;;;5105435;28;20028;-47
2024/02/18 09:16:35;;;;;;;25.20;6.72;;;11.00;99.90;;;;;;5105705;28;20024;-47
2024/02/18 09:19:00;;;;;;;17.50;6.80;;;11.10;99.90;;;;;;5105521;28;20048;-46
2024/02/18 09:21:26;;;;;;;19.60;6.25;;;11.00;99.90;;;;;;5105536;28;20036;-46
2024/02/18 09:23:52;;;;;;;21.27;5.85;;;11.00;99.90;;;;;;5105314;28;20067;-46
2024/02/18 09:26:17;;;;;;;17.20;6.28;;;11.10;99.90;;;;;;5109787;28;20032;-46
2024/02/18 09:28:43;;;;;;;22.17;6.03;;;11.10;99.90;;;;;;5109879;28;20080;-47
2024/02/18 09:31:09;;;;;;;20.92;5.40;;;11.10;99.90;;;;;;5109884;28;20016;-46
2024/02/18 09:33:35;;;;;;;20.45;5.72;;;11.00;99.90;;;;;;5109663;28;20039;-45
2024/02/18 09:36:00;;;;;;;19.15;5.78;;;11.10;99.90;;;;;;5109598;28;20047;-48
2024/02/18 09:38:27;;;;;;;22.33;5.97;;;11.00;99.90;;;;;;5109466;28;20023;-46
2024/02/18 09:40:54;;;;;;;20.15;5.40;;;11.10;99.90;;;;;;5109133;28;20024;-45
2024/02/18 09:43:19;;;;;;;23.70;5.97;;;11.10;99.90;;;;;;5108315;28;20031;-46
2024/02/18 09:45:46;;;;;;;17.13;5.72;;;11.10;99.90;;;;;;5108985;28;20032;-46
2024/02/18 09:48:12;;;;;;;25.83;5.97;;;11.10;99.90;;;;;;5109214;28;20024;-46
2024/02/18 09:50:37;;;;;;;24.90;5.25;;;11.10;99.90;;;;;;5091198;28;20035;-48
2024/02/18 09:53:04;;;;;;;22.48;4.63;;;11.10;99.90;;;;;;5108214;28;20054;-45
2024/02/18 09:55:30;;;;;;;23.85;3.72;;;11.20;99.90;;;;;;5091030;28;20019;-46
2024/02/18 09:57:55;;;;;;;25.63;4.28;;;11.30;99.90;;;;;;5108993;28;20163;-46
2024/02/18 10:00:22;;;;;;;18.35;4.00;;;11.40;99.90;;;;;;5109100;28;20024;-48
2024/02/18 10:02:47;;;;;;;27.70;4.97;;;11.50;99.90;;;;;;5108492;28;20027;-46
2024/02/18 10:05:13;;;;;;;27.40;5.13;;;11.60;99.90;;;;;;5108771;28;20032;-47
2024/02/18 10:07:38;;;;;;;23.80;7.07;;;11.70;99.90;;;;;;5108775;28;20053;-48
2024/02/18 10:10:07;;;;;;;24.70;5.88;;;11.80;99.90;;;;;;5108819;28;20143;-48
2024/02/18 10:12:33;;;;;;;17.17;5.00;;;11.90;99.90;;;;;;5108783;28;20035;-45
2024/02/18 10:15:01;;;;;;;22.45;4.93;;;12.00;99.90;;;;;;5108662;28;20091;-47
2024/02/18 10:17:27;;;;;;;23.42;4.75;;;12.10;99.90;;;;;;5108530;28;20020;-47
2024/02/18 10:19:53;;;;;;;17.55;4.57;;;12.20;99.90;;;;;;5108793;28;20060;-47
2024/02/18 10:22:24;;;;;;;24.25;5.05;;;12.50;99.90;;;;;;5108470;28;20055;-48
2024/02/18 10:24:51;;;;;;;32.33;6.43;;;13.00;99.90;;;;;;5090463;28;20042;-46
2024/02/18 10:27:16;;;;;;;19.98;5.00;;;13.80;99.90;;;;;;5107497;28;20046;-50
2024/02/18 10:29:42;;;;;;;31.55;5.60;;;14.70;99.90;;;;;;5108496;28;20020;-47
2024/02/18 10:32:08;;;;;;;19.88;4.40;;;15.00;99.90;;;;;;5108586;28;20043;-45
2024/02/18 10:34:34;;;;;;;18.23;4.03;;;15.00;99.90;;;;;;5107416;28;20032;-46
2024/02/18 10:37:05;;;;;;;17.95;4.22;;;14.70;99.90;;;;;;5108246;28;20301;-49
2024/02/18 10:39:31;;;;;;;14.60;3.70;;;14.50;99.90;;;;;;5107132;28;20023;-46
2024/02/18 10:42:05;;;;;;;23.38;3.95;;;14.10;99.90;;;;;;5108766;28;20062;-46
2024/02/18 10:44:32;;;;;;;16.52;3.22;;;13.80;99.90;;;;;;5089759;28;20070;-46
2024/02/18 10:46:58;;;;;;;15.90;3.30;;;13.60;99.90;;;;;;5107892;28;20076;-47
2024/02/18 10:49:32;;;;;;;33.83;30.63;;;13.50;99.90;;;;;;5106991;28;20026;-46
2024/02/18 10:52:07;;;;;;;16.33;3.40;;;13.40;99.90;;;;;;5090171;28;20024;-48
2024/02/18 10:54:57;;;;;;;10.90;2.72;;;13.20;99.90;;;;;;5106680;28;20062;-46
2024/02/18 10:57:26;;;;;;;22.40;4.00;;;13.20;99.90;;;;;;5107756;28;20048;-46
2024/02/18 11:00:03;;;;;;;14.40;3.45;;;13.20;99.90;;;;;;5106840;28;20028;-46
2024/02/18 11:02:57;;;;;;;17.58;3.28;;;13.20;99.90;;;;;;5107741;28;20047;-46
2024/02/18 11:05:23;;;;;;;17.17;2.92;;;13.30;99.90;;;;;;5107351;28;20297;-48
2024/02/18 11:07:49;;;;;;;18.88;3.50;;;13.20;99.90;;;;;;5106755;28;20034;-48
2024/02/18 11:10:15;;;;;;;17.73;3.83;;;13.30;99.90;;;;;;5089894;28;20028;-47
2024/02/18 11:12:41;;;;;;;15.52;4.38;;;13.50;99.90;;;;;;5106634;28;20020;-48
2024/02/18 11:15:07;;;;;;;21.80;3.50;;;13.70;99.90;;;;;;5089649;28;20106;-48
2024/02/18 11:17:33;;;;;;;22.52;3.53;;;14.30;99.90;;;;;;5107765;28;20012;-48
2024/02/18 11:19:59;;;;;;;19.95;3.47;;;14.90;99.90;;;;;;5107763;28;20039;-49
2024/02/18 11:22:24;;;;;;;13.93;2.75;;;14.80;99.90;;;;;;5106819;28;20153;-48
2024/02/18 11:24:51;;;;;;;14.40;3.03;;;14.50;99.90;;;;;;5089430;28;20293;-47
2024/02/18 11:27:17;;;;;;;17.50;3.67;;;14.20;99.90;;;;;;5107117;28;20020;-48
2024/02/18 11:29:50;;;;;;;17.85;4.00;;;14.20;99.90;;;;;;5106187;28;20286;-49
2024/02/18 11:32:16;;;;;;;18.33;3.65;;;14.10;99.90;;;;;;5107260;28;20023;-50
2024/02/18 11:34:43;;;;;;;16.15;2.97;;;13.80;99.90;;;;;;5107364;28;20043;-50
2024/02/18 11:37:31;;;;;;;27.10;7.35;;;13.70;99.90;;;;;;5106079;28;20304;-46
2024/02/18 11:40:18;;;;;;;20.42;4.32;;;13.50;99.90;;;;;;5107030;28;20104;-49
2024/02/18 11:42:47;;;;;;;16.60;4.55;;;13.50;99.90;;;;;;5107238;28;20102;-46
2024/02/18 11:45:14;;;;;;;12.25;3.78;;;13.60;99.90;;;;;;5105834;28;20039;-47
2024/02/18 11:47:46;;;;;;;19.88;3.97;;;13.70;99.90;;;;;;5105976;28;20032;-48
2024/02/18 11:50:12;;;;;;;15.55;3.53;;;13.80;99.90;;;;;;5106836;28;20100;-47
2024/02/18 11:52:38;;;;;;;11.05;3.13;;;14.40;99.90;;;;;;5106167;28;20212;-49
2024/02/18 11:55:15;;;;;;;19.85;4.50;;;14.80;99.90;;;;;;5105442;28;20031;-47
2024/02/18 11:57:40;;;;;;;15.48;4.93;;;15.80;99.90;;;;;;5106716;28;20047;-49
2024/02/18 12:00:09;;;;;;;15.23;4.43;;;16.00;99.90;;;;;;5106793;28;20181;-46
2024/02/18 12:02:35;;;;;;;15.25;3.78;;;15.90;99.90;;;;;;5106828;28;20028;-50
2024/02/18 12:05:01;;;;;;;13.55;4.13;;;15.70;99.90;;;;;;5106642;28;20032;-48
2024/02/18 12:07:27;;;;;;;18.77;5.43;;;15.40;99.90;;;;;;5106634;28;20038;-49
2024/02/18 12:09:53;;;;;;;20.95;5.07;;;15.00;99.90;;;;;;5105153;28;20024;-49
2024/02/18 12:12:18;;;;;;;18.52;4.78;;;14.70;99.90;;;;;;5105865;28;20200;-49
2024/02/18 12:14:51;;;;;;;18.00;5.50;;;14.50;99.90;;;;;;5087806;28;20093;-50
2024/02/18 12:17:17;;;;;;;12.85;5.22;;;14.30;99.90;;;;;;5106232;28;20031;-47
2024/02/18 12:19:43;;;;;;;18.50;4.97;;;14.20;99.90;;;;;;5105301;28;20027;-48
2024/02/18 12:22:10;;;;;;;19.23;5.45;;;14.80;99.90;;;;;;5105962;28;20048;-47
2024/02/18 12:24:35;;;;;;;18.20;4.75;;;16.40;99.90;;;;;;5106129;28;20084;-45
2024/02/18 12:27:03;;;;;;;12.65;3.50;;;17.70;99.90;;;;;;5106089;28;20293;-47
2024/02/18 12:29:29;;;;;;;13.32;3.20;;;18.00;99.90;;;;;;5105698;28;20206;-47
2024/02/18 12:31:55;;;;;;;14.73;3.50;;;17.10;99.90;;;;;;5106046;28;20031;-48
2024/02/18 12:34:20;;;;;;;11.23;3.50;;;18.10;99.90;;;;;;5105953;28;20035;-46